GR-701W GNSS レシーバ USB

限定品

¥ 11,000 税込

商品コード:

u-blox 7 GNSS レシーバー USBコネクタ
USB 1ppsサポート
DCD USB DCD経由の1ppsを出力します。

仕様
GPS 56チャンネル(GPS) SBAS Enable
位置精度 2.5m SBAS2.0m CEP50% -130dBm 24hstatic
PPS 30ns RMS  60ns 99%
初期測位 ホット 1秒 ウォーム28秒 コールド30秒
感度 -148 捕捉時 -162 トラッキング
更新周期 1Hz 10Hz max
NMEA 0183 v2.3 GGA, GLL, GSA, GSV, RMC, VTG, TXT
9600 bps
SBAS WAAS EGNOS MSAS
IPX7
-40 ~ 85℃

GR-701W は Prolific PL-2303ドライバーをインストールします。
(GM-701ベース TTLto USBアダプタ をUSBコネクタ部分に


マニュアル 英語
Data Sheet
USB Driver PL-2303

CE FCC RoHS

センテンス出力

$GPGGA,080411.00,3543.89423,N,13944.39735,E,2,10,1.00,80.6,M,39.4,M,,0000*66
$GPGSA,A,3,02,50,42,06,07,10,30,29,13,05,,,2.44,1.00,2.23*0C
$GPGSV,3,1,12,02,63,163,50,05,66,353,14,06,22,146,25,07,23,050,19*72
$GPGSV,3,2,12,10,34,079,29,13,33,044,25,15,21,238,24,26,61,235,*72
$GPGSV,3,3,12,29,24,292,30,30,39,083,17,42,49,180,42,50,48,171,44*73
$GPGLL,3543.89423,N,13944.39735,E,080411.00,A,D*65
$GPRMC,080412.00,A,3543.89405,N,13944.39763,E,0.053,,301014,,,D*79
$GPVTG,,T,,M,0.053,N,0.099,K,D*20

RAW データ

-> $GPGSV,3,2,10,21,36,084,33,23,29,288,33,26,63,025,33,27,49,224,50
-> $GPGSV,3,3,10,29,03,042,,31,48,132,31
-> $GPZDA,021909.00,10,05,2019,00,00
-- PPS --
-> $GPRMC,021910.00,A,3544.06752,N,13943.57933,E,0.015,,100519,,,D
-> $GPGGA,021910.00,3544.06752,N,13943.57933,E,2,07,1.26,58.8,M,39.3,M,,0000
-> $GPGSA,A,3,26,31,16,27,21,23,09,,,,,,2.31,1.26,1.93
-> $GPGSV,3,1,10,08,15,225,,09,11,318,25,14,08,179,,16,57,317,44
-> $GPGSV,3,2,10,21,36,084,33,23,29,288,33,26,63,025,33,27,49,224,50
-> $GPGSV,3,3,10,29,03,042,,31,48,132,31
-> $GPZDA,021910.00,10,05,2019,00,00
-- PPS --
-> $GPRMC,021911.00,A,3544.06753,N,13943.57933,E,0.019,,100519,,,D
-> $GPGGA,021911.00,3544.06753,N,13943.57933,E,2,07,1.26,58.8,M,39.3,M,,0000
-> $GPGSA,A,3,26,31,16,27,21,23,09,,,,,,2.31,1.26,1.93
-> $GPGSV,3,1,10,08,15,225,,09,11,318,25,14,08,179,,16,57,317,44
-> $GPGSV,3,2,10,21,36,084,33,23,29,288,33,26,63,025,33,27,49,224,50
-> $GPGSV,3,3,10,29,03,042,,31,48,132,31
-> $GPZDA,021911.00,10,05,2019,00,00
-- PPS --
-> $GPRMC,021912.00,A,3544.06755,N,13943.57933,E,0.011,,100519,,,D
-> $GPGGA,021912.00,3544.06755,N,13943.57933,E,2,07,1.26,58.5,M,39.3,M,,0000
-> $GPGSA,A,3,26,31,16,27,21,23,09,,,,,,2.31,1.26,1.93
-> $GPGSV,3,1,10,08,15,225,,09,11,318,25,14,08,179,,16,57,317,44
-> $GPGSV,3,2,10,21,36,084,33,23,29,288,33,26,63,025,33,27,49,224,49
-> $GPGSV,3,3,10,29,03,042,,31,48,132,31
-> $GPZDA,021912.00,10,05,2019,00,00
-- PPS --
-> $GPRMC,021913.00,A,3544.06754,N,13943.57934,E,0.019,,100519,,,D
-> $GPGGA,021913.00,3544.06754,N,13943.57934,E,2,07,1.26,58.3,M,39.3,M,,0000
-> $GPGSA,A,3,26,31,16,27,21,23,09,,,,,,2.31,1.26,1.93
-> $GPGSV,3,1,10,08,15,225,,09,11,318,25,14,08,179,,16,57,317,44
-> $GPGSV,3,2,10,21,36,084,33,23,29,288,33,26,63,025,33,27,49,224,49
-> $GPGSV,3,3,10,29,03,042,,31,48,132,32
-> $GPZDA,021913.00,10,05,2019,00,00
-- PPS --
-> $GPRMC,021914.00,A,3544.06754,N,13943.57932,E,0.038,,100519,,,D
-> $GPGGA,021914.00,3544.06754,N,13943.57932,E,2,07,1.26,58.1,M,39.3,M,,0000
-> $GPGSA,A,3,26,31,16,27,21,23,09,,,,,,2.31,1.26,1.93
-> $GPGSV,3,1,10,08,15,225,,09,11,318,26,14,08,179,,16,57,317,44
-> $GPGSV,3,2,10,21,36,084,33,23,29,288,33,26,63,025,33,27,49,224,49
-> $GPGSV,3,3,10,29,03,042,,31,48,132,32
-> $GPZDA,021914.00,10,05,2019,00,00
-- PPS --
-> $GPRMC,021915.00,A,3544.06754,N,13943.57930,E,0.010,,100519,,,D
-> $GPGGA,021915.00,3544.06754,N,13943.57930,E,2,07,1.26,58.1,M,39.3,M,,0000
-> $GPGSA,A,3,26,31,16,27,21,23,09,,,,,,2.31,1.26,1.93
-> $GPGSV,3,1,10,08,15,225,,09,11,318,25,14,08,179,,16,57,317,44
-> $GPGSV,3,2,10,21,36,084,33,23,29,288,33,26,63,025,33,27,49,224,49
-> $GPGSV,3,3,10,29,03,042,,31,48,132,32
-> $GPZDA,021915.00,10,05,2019,00,00
-- PPS --
-> $GPRMC,021916.00,A,3544.06755,N,13943.57926,E,0.032,,100519,,,D
-> $GPGGA,021916.00,3544.06755,N,13943.57926,E,2,07,1.26,57.9,M,39.3,M,,0000
-> $GPGSA,A,3,26,31,16,27,21,23,09,,,,,,2.31,1.26,1.93
-> $GPGSV,3,1,10,08,15,225,,09,11,318,25,14,08,179,,16,57,318,44
-- PPS --
-> $GPRMC,021928.00,A,3544.06764,N,13943.57882,E,0.012,,100519,,,D
-> $GPGGA,021928.00,3544.06764,N,13943.57882,E,2,07,1.26,56.7,M,39.3,M,,0000
-> $GPGSA,A,3,26,31,16,27,21,23,09,,,,,,2.31,1.26,1.94
-> $GPGSV,3,1,10,08,15,225,,09,11,318,22,14,08,179,,16,57,318,44
-> $GPGSV,3,2,10,21,36,083,32,23,29,288,29,26,63,026,33,27,49,224,49
-> $GPGSV,3,3,10,29,03,042,,31,48,132,34
-> $GPZDA,021928.00,10,05,2019,00,00
-- PPS --
-> $GPRMC,021929.00,A,3544.06766,N,13943.57876,E,0.034,,100519,,,D
-> $GPGGA,021929.00,3544.06766,N,13943.57876,E,2,07,1.26,56.5,M,39.3,M,,0000
-> $GPGSA,A,3,26,31,16,27,21,23,09,,,,,,2.31,1.26,1.94
-> $GPGSV,3,1,10,08,15,225,,09,11,318,22,14,08,179,,16,57,318,44
-> $GPGSV,3,2,10,21,36,083,32,23,29,288,29,26,63,026,33,27,49,224,49
-> $GPGSV,3,3,10,29,02,042,,31,48,132,34
-> $GPZDA,021929.00,10,05,2019,00,00
-- PPS --
-> $GPRMC,021930.00,A,3544.06768,N,13943.57869,E,0.031,,100519,,,D
-> $GPGGA,021930.00,3544.06768,N,13943.57869,E,2,07,1.26,56.3,M,39.3,M,,0000
-> $GPGSA,A,3,26,31,16,27,21,23,09,,,,,,2.31,1.26,1.94
-> $GPGSV,3,1,10,08,15,225,,09,11,318,21,14,08,179,,16,57,318,44
-> $GPGSV,3,2,10,21,36,083,32,23,29,288,29,26,63,026,33,27,49,224,49
-> $GPGSV,3,3,10,29,02,042,,31,48,132,34

Re;OPEN ¥5,500以上送料無料実施中
送料700円(税別全国一律)
代引きは送料とは別に手数料がかかります。
¥11,000未満330円・¥33,000未満440円・¥110,000未満660円・30万円未満1100円